Terminal Aerodrome Forecast
Issued by NWS Wilmington, OH

Current Version | Previous Version | Graphics & Text | Print | Product List | Glossary On
Versions: 1 2 3 4 5 6 7 8 9 10 11 12 13 14 15
000
FTUS41 KILN 250537
TAFDAY
TAF
KDAY 250537Z 2506/2606 24007KT P6SM SCT060
     FM250800 27006KT P6SM BKN060
     FM251200 29009KT P6SM SCT060
     FM251700 29010KT P6SM BKN060
     FM260200 26005KT P6SM SCT060=

USA.gov is the U.S. government's official web portal to all federal, state and local government web resources and services.